Time;durP1;ratioP1;P1;durP2;ratioP2;P2;SDS_P1;SDS_P2;PMS_P1;PMS_P2;Temp;Humidity;BMP_temperature;BMP_pressure;BME280_temperature;BME280_humidity;BME280_pressure;Samples;Min_cycle;Max_cycle;Signal;HPM_P1;HPM_P2
2024/02/01 00:00:57;;;;;;;104.57;55.90;;;26.00;2201.60;;;;;;4826004;29;20079;-75
2024/02/01 00:03:22;;;;;;;48.20;27.20;;;26.10;2201.60;;;;;;4831757;29;20030;-76
2024/02/01 00:05:48;;;;;;;49.60;33.67;;;26.10;2201.60;;;;;;4837462;29;20100;-77
2024/02/01 00:08:14;;;;;;;45.88;25.67;;;26.00;2201.60;;;;;;4824331;29;20383;-77
2024/02/01 00:10:39;;;;;;;102.05;50.55;;;25.80;2201.60;;;;;;4824474;29;20125;-77
2024/02/01 00:13:06;;;;;;;79.57;40.72;;;0.80;2201.60;;;;;;4840723;29;20058;-77
2024/02/01 00:15:32;;;;;;;101.57;48.72;;;0.60;2201.60;;;;;;4829229;29;20030;-77
2024/02/01 00:17:58;;;;;;;83.25;41.28;;;0.30;2201.60;;;;;;4824460;29;20036;-76
2024/02/01 00:20:23;;;;;;;287.52;128.13;;;0.10;2201.60;;;;;;4825722;29;20062;-77
2024/02/01 00:22:49;;;;;;;398.10;168.25;;;0.10;2201.60;;;;;;4832098;29;20488;-77
2024/02/01 00:25:15;;;;;;;295.10;118.43;;;0.40;2201.60;;;;;;4827601;29;20066;-76
2024/02/01 00:27:41;;;;;;;59.63;28.85;;;0.50;2201.60;;;;;;4829527;29;20154;-77
2024/02/01 00:30:07;;;;;;;117.72;50.00;;;0.50;2201.60;;;;;;4830637;29;20058;-77
2024/02/01 00:32:33;;;;;;;52.47;25.85;;;0.50;2201.60;;;;;;4829356;29;20038;-77
2024/02/01 00:34:59;;;;;;;203.70;77.53;;;0.40;2201.60;;;;;;4827284;29;20038;-77
2024/02/01 00:37:25;;;;;;;170.77;68.63;;;0.40;2201.60;;;;;;4838483;29;20026;-76
2024/02/01 00:39:51;;;;;;;106.35;46.75;;;0.60;2201.60;;;;;;4826469;29;20071;-76
2024/02/01 00:42:17;;;;;;;103.72;47.85;;;0.90;2201.60;;;;;;4826460;29;20058;-77
2024/02/01 00:44:42;;;;;;;92.20;41.65;;;25.60;2201.60;;;;;;4821151;29;20090;-77
2024/02/01 00:47:08;;;;;;;45.15;23.92;;;25.80;2201.60;;;;;;4825567;29;20453;-77
2024/02/01 00:49:35;;;;;;;65.50;35.13;;;26.00;2201.60;;;;;;4823742;29;20030;-77
2024/02/01 00:52:01;;;;;;;30.02;18.38;;;26.30;2201.60;;;;;;4824421;29;20037;-77
2024/02/01 00:54:27;;;;;;;50.22;28.20;;;25.90;2201.60;;;;;;4822887;29;20046;-76
2024/02/01 00:56:53;;;;;;;43.97;23.25;;;26.10;2201.60;;;;;;4827798;29;20038;-77
2024/02/01 00:59:20;;;;;;;46.20;23.85;;;25.90;2201.60;;;;;;4829962;29;20121;-75
2024/02/01 01:01:45;;;;;;;28.67;17.60;;;26.00;2201.60;;;;;;4832821;29;20034;-77
2024/02/01 01:04:15;;;;;;;43.83;23.08;;;25.60;2201.60;;;;;;4824297;29;20026;-77
2024/02/01 01:06:42;;;;;;;29.65;15.75;;;25.70;2201.60;;;;;;4827947;29;20528;-77
2024/02/01 01:09:08;;;;;;;132.52;57.05;;;25.70;2201.60;;;;;;4819700;29;20094;-77
2024/02/01 01:11:34;;;;;;;208.98;92.70;;;0.90;2201.60;;;;;;4833900;29;20029;-78
2024/02/01 01:14:00;;;;;;;99.35;47.83;;;0.60;2201.60;;;;;;4831194;29;20034;-78
2024/02/01 01:16:27;;;;;;;151.23;72.53;;;0.60;2201.60;;;;;;4833571;29;20032;-77
2024/02/01 01:18:53;;;;;;;176.57;86.55;;;0.70;2201.60;;;;;;4835333;29;20087;-77
2024/02/01 01:21:18;;;;;;;80.20;42.08;;;0.80;2201.60;;;;;;4832031;29;20026;-77
2024/02/01 01:23:44;;;;;;;56.33;34.60;;;0.90;2201.60;;;;;;4834768;29;20061;-78
2024/02/01 01:26:10;;;;;;;46.42;23.85;;;25.60;2201.60;;;;;;4832711;29;20041;-77
2024/02/01 01:28:36;;;;;;;43.22;23.95;;;25.70;2201.60;;;;;;4835923;29;20127;-79
2024/02/01 01:31:02;;;;;;;36.63;20.60;;;25.80;2201.60;;;;;;4839521;29;20034;-76
2024/02/01 01:33:31;;;;;;;50.42;28.77;;;25.60;2201.60;;;;;;4839508;29;20036;-76
2024/02/01 01:35:57;;;;;;;40.70;25.38;;;0.90;2201.60;;;;;;4839779;29;20053;-77
2024/02/01 01:38:23;;;;;;;33.55;18.95;;;0.90;2201.60;;;;;;4839998;29;20037;-76
2024/02/01 01:40:49;;;;;;;36.70;20.08;;;0.80;2201.60;;;;;;4835935;29;20038;-77
2024/02/01 01:43:14;;;;;;;26.52;15.30;;;25.70;2201.60;;;;;;4835801;29;20045;-78
2024/02/01 01:45:40;;;;;;;24.23;14.73;;;0.90;2201.60;;;;;;4839495;29;20033;-76
2024/02/01 01:48:07;;;;;;;39.97;23.55;;;0.80;2201.60;;;;;;4839505;29;20030;-77
2024/02/01 01:50:33;;;;;;;30.70;18.67;;;0.80;2201.60;;;;;;4839350;29;20372;-77
2024/02/01 01:53:00;;;;;;;25.77;14.98;;;0.90;2201.60;;;;;;4838859;29;20052;-78
2024/02/01 01:55:28;;;;;;;25.58;15.13;;;0.70;2201.60;;;;;;4839271;29;20469;-77
2024/02/01 01:57:54;;;;;;;34.85;18.58;;;0.60;2201.60;;;;;;4839120;29;20068;-77
2024/02/01 02:00:23;;;;;;;41.22;23.65;;;0.40;2201.60;;;;;;4838078;29;20049;-77
2024/02/01 02:02:49;;;;;;;50.00;27.77;;;0.70;2201.60;;;;;;4839122;29;20105;-77
2024/02/01 02:05:15;;;;;;;41.50;26.75;;;0.90;2201.60;;;;;;4838995;29;20033;-77
2024/02/01 02:07:41;;;;;;;27.35;14.90;;;25.70;2201.60;;;;;;4839131;29;20021;-77
2024/02/01 02:10:14;;;;;;;19.55;11.98;;;25.80;2201.60;;;;;;4837568;29;20439;-77
2024/02/01 02:12:41;;;;;;;15.90;9.75;;;26.00;2201.60;;;;;;4838995;29;20041;-77
2024/02/01 02:15:08;;;;;;;17.63;11.50;;;26.00;2201.60;;;;;;4837630;29;20075;-77
2024/02/01 02:17:34;;;;;;;14.25;9.88;;;26.00;2201.60;;;;;;4842259;29;20600;-78
2024/02/01 02:20:16;;;;;;;18.35;9.95;;;26.00;2201.60;;;;;;4838993;29;20073;-79
2024/02/01 02:22:45;;;;;;;23.67;11.25;;;26.00;2201.60;;;;;;4838923;29;20434;-77
2024/02/01 02:25:13;;;;;;;24.38;14.70;;;25.90;2201.60;;;;;;4828598;29;20045;-77
2024/02/01 02:27:41;;;;;;;22.50;13.95;;;25.60;2201.60;;;;;;4844355;29;20093;-78
2024/02/01 02:30:07;;;;;;;22.95;12.10;;;0.80;2201.60;;;;;;4837456;29;20062;-79
2024/02/01 02:32:33;;;;;;;28.85;14.07;;;0.50;2201.60;;;;;;4838982;29;20040;-78
2024/02/01 02:34:59;;;;;;;25.23;15.20;;;0.60;2201.60;;;;;;4838605;29;20030;-80
2024/02/01 02:37:25;;;;;;;38.17;23.15;;;0.70;2201.60;;;;;;4838807;29;20492;-79
2024/02/01 02:39:52;;;;;;;44.70;24.95;;;0.50;2201.60;;;;;;4838664;29;20058;-78
2024/02/01 02:42:17;;;;;;;33.80;20.38;;;0.80;2201.60;;;;;;4838385;29;20121;-78
2024/02/01 02:44:43;;;;;;;30.65;16.10;;;0.90;2201.60;;;;;;4838595;29;20026;-79
2024/02/01 02:47:09;;;;;;;23.02;13.07;;;25.60;2201.60;;;;;;4838799;29;20081;-78
2024/02/01 02:49:35;;;;;;;19.55;11.77;;;25.70;2201.60;;;;;;4838297;29;20029;-78
2024/02/01 02:52:00;;;;;;;19.42;11.98;;;25.70;2201.60;;;;;;4838503;29;20058;-78
2024/02/01 02:54:26;;;;;;;24.15;13.40;;;0.90;2201.60;;;;;;4838339;29;20521;-77
2024/02/01 02:56:52;;;;;;;15.25;8.95;;;0.80;2201.60;;;;;;4832122;29;20459;-80
2024/02/01 02:59:18;;;;;;;15.75;9.15;;;0.60;2201.60;;;;;;4832715;29;20116;-78
2024/02/01 03:01:44;;;;;;;20.90;12.93;;;0.70;2201.60;;;;;;4838676;29;20030;-77
2024/02/01 03:04:10;;;;;;;19.45;11.68;;;0.80;2201.60;;;;;;4838170;29;20441;-78
2024/02/01 03:06:36;;;;;;;21.92;12.63;;;0.70;2201.60;;;;;;4838501;29;20025;-77
2024/02/01 03:09:02;;;;;;;26.75;17.83;;;0.60;2201.60;;;;;;4838419;29;20064;-78
2024/02/01 03:11:28;;;;;;;27.27;15.80;;;0.60;2201.60;;;;;;4838077;29;20030;-78
2024/02/01 03:13:54;;;;;;;23.50;13.52;;;0.60;2201.60;;;;;;4837909;29;20460;-79
2024/02/01 03:16:21;;;;;;;23.95;13.38;;;0.50;2201.60;;;;;;4838542;29;20026;-76
2024/02/01 03:18:48;;;;;;;22.13;13.18;;;0.40;2201.60;;;;;;4837828;29;20077;-77
2024/02/01 03:21:16;;;;;;;18.73;10.38;;;0.50;2201.60;;;;;;4837958;29;20121;-78
2024/02/01 03:23:43;;;;;;;24.73;12.88;;;0.60;2201.60;;;;;;4828484;29;20445;-78
2024/02/01 03:26:10;;;;;;;21.30;13.85;;;0.50;2201.60;;;;;;4841979;29;20458;-77
2024/02/01 03:28:39;;;;;;;24.40;14.65;;;0.60;2201.60;;;;;;4841582;29;20030;-77
2024/02/01 03:31:05;;;;;;;17.00;9.85;;;0.70;2201.60;;;;;;4841842;29;20030;-77
2024/02/01 03:33:38;;;;;;;18.02;9.85;;;0.70;2201.60;;;;;;4841863;29;20112;-77
2024/02/01 03:36:07;;;;;;;16.38;8.73;;;0.70;2201.60;;;;;;4841772;29;20057;-77
2024/02/01 03:38:33;;;;;;;26.25;14.65;;;0.70;2201.60;;;;;;4841873;29;20098;-77
2024/02/01 03:40:59;;;;;;;24.90;13.63;;;0.70;2201.60;;;;;;4841595;29;20432;-77
2024/02/01 03:43:27;;;;;;;20.35;11.00;;;0.80;2201.60;;;;;;4841391;29;20030;-79
2024/02/01 03:45:55;;;;;;;16.42;10.55;;;0.80;2201.60;;;;;;4841719;29;20365;-77
2024/02/01 03:48:21;;;;;;;19.65;11.65;;;0.70;2201.60;;;;;;4841738;29;20158;-77
2024/02/01 03:50:49;;;;;;;16.10;9.05;;;0.60;2201.60;;;;;;4841308;29;20479;-77
2024/02/01 03:53:15;;;;;;;20.48;10.82;;;0.40;2201.60;;;;;;4840859;29;20426;-78
2024/02/01 03:55:41;;;;;;;35.72;20.38;;;0.50;2201.60;;;;;;4841680;29;20038;-78
2024/02/01 03:58:07;;;;;;;133.15;67.38;;;0.40;2201.60;;;;;;4840978;29;20057;-79
2024/02/01 04:00:34;;;;;;;101.20;53.28;;;0.20;2201.60;;;;;;4831619;29;20054;-78
2024/02/01 04:03:03;;;;;;;77.55;39.40;;;0.20;2201.60;;;;;;4819824;29;20476;-77
2024/02/01 04:05:37;;;;;;;61.00;31.85;;;0.20;2201.60;;;;;;4841253;29;20022;-78
2024/02/01 04:08:06;;;;;;;;;;;0.30;2201.60;;;;;;4841784;29;20037;-78
2024/02/01 04:10:34;;;;;;;37.63;17.58;;;0.50;2201.60;;;;;;4841371;29;19908;-76
2024/02/01 04:13:00;;;;;;;31.75;16.80;;;0.50;2201.60;;;;;;4840965;29;20391;-80
2024/02/01 04:15:26;;;;;;;19.33;10.95;;;0.50;2201.60;;;;;;4824737;29;20497;-78
2024/02/01 04:17:52;;;;;;;40.92;24.70;;;0.50;2201.60;;;;;;4841019;29;20408;-79
2024/02/01 04:20:18;;;;;;;22.35;13.68;;;0.50;2201.60;;;;;;4840818;29;20126;-77
2024/02/01 04:22:44;;;;;;;28.98;22.73;;;0.50;2201.60;;;;;;4840849;29;20026;-78
2024/02/01 04:25:09;;;;;;;25.90;15.52;;;0.60;2201.60;;;;;;4840981;29;20075;-79
2024/02/01 04:27:36;;;;;;;22.52;13.75;;;0.60;2201.60;;;;;;4840816;29;20030;-79
2024/02/01 04:30:04;;;;;;;17.05;11.23;;;0.70;2201.60;;;;;;4824409;29;20093;-78
2024/02/01 04:32:29;;;;;;;30.42;17.83;;;0.40;2201.60;;;;;;4824162;29;20481;-79
2024/02/01 04:34:55;;;;;;;21.67;12.35;;;0.40;2201.60;;;;;;4839403;29;20045;-78
2024/02/01 04:37:22;;;;;;;16.17;10.77;;;0.50;2201.60;;;;;;4840865;29;20059;-77
2024/02/01 04:39:49;;;;;;;25.30;16.13;;;0.40;2201.60;;;;;;4839289;29;20042;-79
2024/02/01 04:42:15;;;;;;;24.73;14.50;;;0.50;2201.60;;;;;;4840412;29;20030;-78
2024/02/01 04:44:46;;;;;;;16.40;12.68;;;0.60;2201.60;;;;;;4840829;29;20354;-78
2024/02/01 04:47:12;;;;;;;13.38;8.27;;;0.30;2201.60;;;;;;4840696;29;20029;-78
2024/02/01 04:49:38;;;;;;;13.15;6.97;;;0.40;2201.60;;;;;;4839051;29;20073;-79
2024/02/01 04:52:08;;;;;;;14.73;8.02;;;0.40;2201.60;;;;;;4824226;29;20075;-77
2024/02/01 04:54:34;;;;;;;22.55;11.85;;;0.50;2201.60;;;;;;4823873;29;20505;-78
2024/02/01 04:57:03;;;;;;;13.98;8.90;;;0.50;2201.60;;;;;;4840695;29;20521;-79
2024/02/01 04:59:29;;;;;;;12.80;8.02;;;0.50;2201.60;;;;;;4840162;29;20042;-79
2024/02/01 05:01:55;;;;;;;10.95;5.43;;;0.50;2201.60;;;;;;4840388;29;20026;-78
2024/02/01 05:04:21;;;;;;;10.82;7.22;;;0.40;2201.60;;;;;;4840277;29;20025;-78
2024/02/01 05:06:47;;;;;;;17.40;9.70;;;0.20;2201.60;;;;;;4840557;29;20368;-78
2024/02/01 05:09:25;;;;;;;18.50;8.90;;;0.40;2201.60;;;;;;4840189;29;20026;-79
2024/02/01 05:11:54;;;;;;;16.95;6.10;;;0.30;2201.60;;;;;;4823743;29;20038;-80
2024/02/01 05:14:21;;;;;;;13.73;7.93;;;0.30;2201.60;;;;;;4839905;29;20038;-79
2024/02/01 05:16:49;;;;;;;14.90;7.03;;;0.40;2201.60;;;;;;4840067;29;20124;-79
2024/02/01 05:19:15;;;;;;;15.40;8.10;;;0.10;2201.60;;;;;;4839739;29;20443;-79
2024/02/01 05:21:41;;;;;;;10.68;6.30;;;0.40;2201.60;;;;;;4840229;29;20049;-79
2024/02/01 05:24:08;;;;;;;18.10;7.97;;;0.50;2201.60;;;;;;4848362;29;20072;-77
2024/02/01 05:26:37;;;;;;;17.30;9.40;;;0.60;2201.60;;;;;;4847987;29;20026;-77
2024/02/01 05:29:04;;;;;;;21.20;9.77;;;0.70;2201.60;;;;;;4839948;29;20030;-77
2024/02/01 05:31:30;;;;;;;15.02;9.13;;;0.60;2201.60;;;;;;4829304;29;20158;-77
2024/02/01 05:33:56;;;;;;;21.70;11.43;;;0.60;2201.60;;;;;;4837969;29;20030;-77
2024/02/01 05:36:22;;;;;;;27.83;12.48;;;0.40;2201.60;;;;;;4840056;29;20034;-77
2024/02/01 05:38:47;;;;;;;41.20;19.98;;;0.40;2201.60;;;;;;4839522;29;20037;-77
2024/02/01 05:41:13;;;;;;;31.08;19.55;;;0.50;2201.60;;;;;;4839692;29;20366;-78
2024/02/01 05:43:40;;;;;;;52.45;30.20;;;0.60;2201.60;;;;;;4839359;29;20473;-77
2024/02/01 05:46:15;;;;;;;57.25;33.65;;;0.60;2201.60;;;;;;4823079;29;20030;-77
2024/02/01 05:48:41;;;;;;;27.27;15.65;;;0.60;2201.60;;;;;;4839186;29;20033;-77
2024/02/01 05:51:07;;;;;;;21.42;11.95;;;0.60;2201.60;;;;;;4839802;29;20033;-77
2024/02/01 05:53:33;;;;;;;13.20;10.10;;;0.60;2201.60;;;;;;4839117;29;20054;-79
2024/02/01 05:55:59;;;;;;;16.77;9.80;;;0.60;2201.60;;;;;;4822899;29;20046;-78
2024/02/01 05:58:28;;;;;;;14.93;7.95;;;0.60;2201.60;;;;;;4822405;29;20404;-80
2024/02/01 06:00:54;;;;;;;15.05;7.72;;;0.50;2201.60;;;;;;4839536;29;20112;-78
2024/02/01 06:03:20;;;;;;;35.75;21.13;;;0.50;2201.60;;;;;;4839246;29;20459;-77
2024/02/01 06:05:49;;;;;;;39.03;24.52;;;0.60;2201.60;;;;;;4838869;29;20151;-78
2024/02/01 06:08:18;;;;;;;29.58;17.75;;;0.70;2201.60;;;;;;4839122;29;20094;-80
2024/02/01 06:10:44;;;;;;;21.13;11.63;;;0.80;2201.60;;;;;;4839199;29;20501;-78
2024/02/01 06:13:11;;;;;;;104.32;57.17;;;0.80;2201.60;;;;;;4839135;29;20371;-79
2024/02/01 06:15:37;;;;;;;426.30;225.38;;;0.80;2201.60;;;;;;4839011;29;20030;-78
2024/02/01 06:18:04;;;;;;;207.43;130.63;;;0.90;2201.60;;;;;;4839173;29;20030;-78
2024/02/01 06:20:30;;;;;;;145.68;86.35;;;0.80;2201.60;;;;;;4838467;29;20029;-78
2024/02/01 06:22:57;;;;;;;133.48;73.53;;;0.90;2201.60;;;;;;4838863;29;20137;-79
2024/02/01 06:25:23;;;;;;;45.15;24.45;;;0.90;2201.60;;;;;;4838701;29;20050;-78
2024/02/01 06:27:49;;;;;;;31.52;18.10;;;0.90;2201.60;;;;;;4838644;29;20037;-78
2024/02/01 06:30:15;;;;;;;40.38;21.15;;;25.60;2201.60;;;;;;4838740;29;20030;-79
2024/02/01 06:32:42;;;;;;;42.50;25.23;;;0.90;2201.60;;;;;;4838998;29;20087;-77
2024/02/01 06:35:16;;;;;;;31.80;16.83;;;0.90;2201.60;;;;;;4838348;29;20100;-78
2024/02/01 06:37:51;;;;;;;21.95;14.55;;;0.70;2201.60;;;;;;4822469;29;20040;-78
2024/02/01 06:43:17;;;;;;;25.77;14.93;;;0.40;2201.60;;;;;;4838617;29;20045;-78
2024/02/01 06:45:58;;;;;;;42.35;26.90;;;0.40;2201.60;;;;;;4838578;29;20040;-80
2024/02/01 06:48:30;;;;;;;92.43;55.35;;;0.60;2201.60;;;;;;4822182;29;20025;-80
2024/02/01 06:50:57;;;;;;;28.80;19.13;;;0.80;2201.60;;;;;;4838497;29;20067;-78
2024/02/01 06:53:34;;;;;;;30.42;16.67;;;0.90;2201.60;;;;;;4821973;29;20048;-78
2024/02/01 06:56:06;;;;;;;172.85;97.80;;;25.60;2201.60;;;;;;4836856;29;20087;-77
2024/02/01 06:58:46;;;;;;;84.45;45.95;;;25.60;2201.60;;;;;;4836626;29;20046;-81
2024/02/01 07:01:33;;;;;;;38.88;20.27;;;25.80;2201.60;;;;;;4821937;29;20038;-78
2024/02/01 07:04:16;;;;;;;27.48;15.20;;;25.80;2201.60;;;;;;4821839;29;20142;-78
2024/02/01 07:09:36;;;;;;;37.28;27.95;;;26.00;2201.60;;;;;;4838117;29;20117;-78
2024/02/01 07:15:09;;;;;;;21.58;12.75;;;26.30;2201.60;;;;;;4818037;29;20045;-78
2024/02/01 07:17:43;;;;;;;18.73;10.00;;;26.20;2201.60;;;;;;4817818;29;20146;-79
2024/02/01 07:20:14;;;;;;;28.48;17.23;;;26.30;2201.60;;;;;;4817601;29;20126;-79
2024/02/01 07:23:00;;;;;;;28.65;16.80;;;26.40;2201.60;;;;;;4817869;29;20095;-80
2024/02/01 07:25:47;;;;;;;36.08;21.77;;;26.50;2201.60;;;;;;4817433;29;20042;-80
2024/02/01 07:58:38;;;;;;;88.97;50.45;;;76.90;2227.20;;;;;;4838176;29;20389;-78
2024/02/01 08:01:14;;;;;;;46.15;28.30;;;77.20;2227.20;;;;;;4832526;29;20034;-80
2024/02/01 08:03:56;;;;;;;40.15;24.48;;;102.60;2227.20;;;;;;4836065;29;20030;-76
2024/02/01 08:09:12;;;;;;;43.63;30.38;;;179.60;2201.60;;;;;;4838968;29;20110;-82
2024/02/01 08:11:43;;;;;;;38.85;28.88;;;230.50;2022.40;;;;;;4831978;29;20033;-84
2024/02/01 08:14:15;;;;;;;42.38;33.13;;;256.50;1894.40;;;;;;4840210;29;20461;-84
2024/02/01 08:16:46;;;;;;;98.28;80.35;;;307.70;1817.60;;;;;;4843921;29;20050;-87
2024/02/01 08:19:12;;;;;;;139.70;114.28;;;333.20;1715.20;;;;;;4843500;29;20026;-85
2024/02/01 08:21:39;;;;;;;84.78;70.22;;;333.60;1689.60;;;;;;4828733;29;20045;-79
2024/02/01 08:24:09;;;;;;;60.25;49.78;;;359.00;1612.80;;;;;;4840766;29;20054;-75
2024/02/01 08:26:39;;;;;;;52.45;40.47;;;384.30;1536.00;;;;;;4840374;29;20051;-81
2024/02/01 08:29:14;;;;;;;44.22;33.75;;;384.50;1536.00;;;;;;4840355;29;20026;-77
2024/02/01 08:31:40;;;;;;;39.65;33.25;;;410.00;1510.40;;;;;;4840690;29;20026;-85
2024/02/01 08:34:14;;;;;;;57.75;45.28;;;435.50;1459.20;;;;;;4840515;29;20094;-79
2024/02/01 08:36:41;;;;;;;162.77;138.98;;;435.80;1382.40;;;;;;4840668;29;20109;-78
2024/02/01 08:39:10;;;;;;;120.88;107.00;;;436.00;1408.00;;;;;;4833796;29;20036;-78
2024/02/01 08:41:37;;;;;;;242.82;211.48;;;460.80;1433.60;;;;;;4835092;29;20032;-81
2024/02/01 08:44:09;;;;;;;266.13;226.70;;;409.80;1536.00;;;;;;4836109;29;20117;-75
2024/02/01 08:46:35;;;;;;;493.90;375.05;;;359.30;1587.20;;;;;;4831767;29;20079;-78
2024/02/01 08:49:02;;;;;;;498.80;374.48;;;358.40;1612.80;;;;;;4835710;29;20030;-79
2024/02/01 08:51:28;;;;;;;410.25;315.38;;;359.00;1587.20;;;;;;4821838;29;20022;-78
2024/02/01 08:53:54;;;;;;;450.38;329.15;;;384.40;1536.00;;;;;;4831893;29;20050;-76
2024/02/01 08:56:22;;;;;;;457.27;341.70;;;410.30;1510.40;;;;;;4824081;29;20065;-80
2024/02/01 08:58:49;;;;;;;358.98;287.58;;;384.70;1510.40;;;;;;4822885;29;20038;-84
2024/02/01 09:01:26;;;;;;;258.63;217.02;;;384.30;1536.00;;;;;;4829161;29;20513;-77
2024/02/01 09:03:52;;;;;;;285.55;246.57;;;359.30;1561.60;;;;;;4839944;29;20026;-83
2024/02/01 09:06:19;;;;;;;274.73;236.23;;;358.70;1612.80;;;;;;4840204;29;20026;-81
2024/02/01 09:08:45;;;;;;;243.23;211.32;;;384.40;1587.20;;;;;;4839916;29;20471;-75
2024/02/01 09:11:11;;;;;;;226.90;194.88;;;384.50;1536.00;;;;;;4839957;29;20090;-75
2024/02/01 09:13:43;;;;;;;227.05;195.45;;;409.70;1536.00;;;;;;4839392;29;20109;-75
2024/02/01 09:16:10;;;;;;;340.45;290.33;;;410.50;1484.80;;;;;;4839678;29;20501;-75
2024/02/01 09:18:36;;;;;;;321.83;269.25;;;410.20;1484.80;;;;;;4837973;29;20516;-78
2024/02/01 09:21:02;;;;;;;246.10;212.95;;;435.30;1459.20;;;;;;4826348;29;20027;-74
2024/02/01 09:23:27;;;;;;;204.70;178.77;;;435.60;1459.20;;;;;;4838760;29;20070;-74
2024/02/01 09:25:53;;;;;;;168.30;149.27;;;435.50;1433.60;;;;;;4838335;29;20362;-74
2024/02/01 09:28:19;;;;;;;145.18;129.25;;;435.80;1408.00;;;;;;4839347;29;20074;-74
2024/02/01 09:30:46;;;;;;;168.07;149.60;;;435.60;1382.40;;;;;;4838320;29;20036;-75
2024/02/01 09:33:13;;;;;;;165.80;139.38;;;409.70;1484.80;;;;;;4839046;29;20029;-74
2024/02/01 09:35:40;;;;;;;145.65;126.88;;;384.40;1484.80;;;;;;4837733;29;20033;-75
2024/02/01 09:38:06;;;;;;;173.25;144.48;;;384.70;1484.80;;;;;;4838906;29;20436;-76
2024/02/01 09:40:32;;;;;;;139.70;119.18;;;384.90;1459.20;;;;;;4837398;29;20042;-77
2024/02/01 09:42:59;;;;;;;119.65;101.78;;;384.40;1459.20;;;;;;4838171;29;20026;-84
2024/02/01 09:45:29;;;;;;;158.27;129.15;;;384.10;1459.20;;;;;;4834115;29;20736;-81
2024/02/01 09:47:56;;;;;;;128.48;108.00;;;384.10;1459.20;;;;;;4834548;29;20026;-78
2024/02/01 09:50:23;;;;;;;122.00;101.43;;;359.10;1510.40;;;;;;4827525;29;20090;-85
2024/02/01 09:52:51;;;;;;;146.05;123.47;;;358.40;1536.00;;;;;;4831490;29;20121;-85
2024/02/01 09:55:20;;;;;;;125.43;104.45;;;333.00;1612.80;;;;;;4839534;29;20133;-86
2024/02/01 09:57:48;;;;;;;157.98;127.78;;;307.50;1638.40;;;;;;4839137;29;20018;-84
2024/02/01 10:00:18;;;;;;;265.75;122.38;;;307.20;1664.00;;;;;;4839538;29;20037;-84
2024/02/01 10:02:46;;;;;;;175.60;129.95;;;282.50;1664.00;;;;;;4834876;29;20109;-79
2024/02/01 10:05:13;;;;;;;143.25;114.53;;;307.40;1689.60;;;;;;4830560;29;20033;-85
2024/02/01 10:07:39;;;;;;;130.95;107.38;;;307.20;1664.00;;;;;;4834343;29;20456;-86
2024/02/01 10:10:07;;;;;;;127.22;94.75;;;307.20;1664.00;;;;;;4829445;29;20075;-81
2024/02/01 10:12:34;;;;;;;117.18;96.63;;;282.40;1612.80;;;;;;4833509;29;20082;-84
2024/02/01 10:15:08;;;;;;;115.22;93.05;;;307.70;1612.80;;;;;;4828565;29;20122;-83
2024/02/01 10:17:45;;;;;;;119.82;102.35;;;307.80;1587.20;;;;;;4830732;29;20026;-86
2024/02/01 10:20:39;;;;;;;128.00;108.05;;;307.90;1587.20;;;;;;4830331;29;20524;-83
2024/02/01 10:23:10;;;;;;;104.50;87.93;;;333.40;1587.20;;;;;;4838566;29;20113;-79
2024/02/01 10:25:40;;;;;;;117.20;97.32;;;358.70;1536.00;;;;;;4836124;29;20511;-76
2024/02/01 10:28:11;;;;;;;105.82;87.40;;;359.30;1459.20;;;;;;4820368;29;20054;-76
2024/02/01 10:30:42;;;;;;;109.47;92.25;;;358.60;1510.40;;;;;;4824078;29;20026;-77
2024/02/01 10:33:09;;;;;;;90.53;74.65;;;358.80;1510.40;;;;;;4821383;29;20034;-77
2024/02/01 10:35:36;;;;;;;97.10;76.53;;;333.70;1510.40;;;;;;4823354;29;20018;-77
2024/02/01 10:38:13;;;;;;;100.57;76.25;;;333.40;1561.60;;;;;;4824463;29;20023;-78
2024/02/01 10:41:11;;;;;;;107.20;72.95;;;333.00;1561.60;;;;;;4829750;29;20496;-90
2024/02/01 10:43:45;;;;;;;87.03;57.88;;;307.90;1587.20;;;;;;4838876;29;20061;-83
2024/02/01 10:46:47;;;;;;;131.93;74.95;;;307.20;1612.80;;;;;;4839116;29;20028;-88
2024/02/01 10:49:21;;;;;;;65.85;48.40;;;282.30;1612.80;;;;;;4838361;29;20049;-86
2024/02/01 10:51:55;;;;;;;102.75;66.30;;;282.10;1612.80;;;;;;4838392;29;20045;-85
2024/02/01 10:54:22;;;;;;;81.18;56.03;;;282.10;1612.80;;;;;;4839071;29;20067;-87
2024/02/01 10:56:48;;;;;;;74.93;50.33;;;282.20;1612.80;;;;;;4830130;29;20489;-84
2024/02/01 10:59:17;;;;;;;75.32;48.72;;;282.00;1638.40;;;;;;4834660;29;20045;-82
2024/02/01 11:01:44;;;;;;;79.93;55.08;;;282.10;1638.40;;;;;;4834529;29;20030;-87
2024/02/01 11:04:11;;;;;;;76.03;52.15;;;281.90;1638.40;;;;;;4832922;29;20031;-87
2024/02/01 11:06:44;;;;;;;118.15;78.78;;;282.00;1664.00;;;;;;4829967;29;20026;-85
2024/02/01 11:09:21;;;;;;;112.75;72.75;;;281.80;1664.00;;;;;;4832087;29;20468;-79
2024/02/01 11:11:52;;;;;;;85.32;60.88;;;281.70;1664.00;;;;;;4831019;29;20408;-77
2024/02/01 11:14:26;;;;;;;84.13;58.15;;;282.20;1638.40;;;;;;4828480;29;20029;-77
2024/02/01 11:17:01;;;;;;;54.67;38.88;;;282.50;1612.80;;;;;;4831503;29;20026;-75
2024/02/01 11:19:32;;;;;;;51.47;36.40;;;307.50;1612.80;;;;;;4831795;29;20034;-75
2024/02/01 11:22:03;;;;;;;62.67;43.22;;;307.60;1587.20;;;;;;4827265;29;20049;-79
2024/02/01 11:24:33;;;;;;;70.82;47.58;;;307.70;1587.20;;;;;;4836732;29;20046;-78
2024/02/01 11:27:24;;;;;;;84.47;51.10;;;307.30;1561.60;;;;;;4835975;29;20053;-85
2024/02/01 11:29:56;;;;;;;95.65;63.53;;;307.30;1561.60;;;;;;4837671;29;20026;-89
2024/02/01 11:32:23;;;;;;;91.80;59.13;;;307.20;1561.60;;;;;;4838077;29;20036;-87
2024/02/01 11:34:52;;;;;;;94.88;60.83;;;282.40;1561.60;;;;;;4830466;29;20061;-85
2024/02/01 11:37:23;;;;;;;138.07;89.28;;;282.30;1536.00;;;;;;4837804;29;20053;-87
2024/02/01 11:39:51;;;;;;;133.45;81.68;;;282.30;1510.40;;;;;;4837626;29;20125;-79
2024/02/01 11:42:21;;;;;;;77.00;49.30;;;307.20;1536.00;;;;;;4838082;29;20058;-88
2024/02/01 11:44:48;;;;;;;69.25;45.78;;;307.50;1510.40;;;;;;4839171;29;20053;-85
2024/02/01 11:47:14;;;;;;;73.22;45.78;;;307.30;1510.40;;;;;;4825638;29;20026;-82
2024/02/01 11:49:41;;;;;;;62.83;41.60;;;282.50;1510.40;;;;;;4842524;29;20112;-83
2024/02/01 11:52:21;;;;;;;69.20;46.17;;;282.50;1484.80;;;;;;4841508;29;20503;-82
2024/02/01 11:54:52;;;;;;;68.03;44.58;;;307.20;1510.40;;;;;;4841799;29;20073;-89
2024/02/01 11:57:21;;;;;;;62.72;43.53;;;282.50;1484.80;;;;;;4841636;29;20022;-76
2024/02/01 11:59:50;;;;;;;86.72;59.15;;;282.40;1484.80;;;;;;4841136;29;20038;-76
2024/02/01 12:02:17;;;;;;;47.47;32.97;;;282.50;1484.80;;;;;;4841165;29;20497;-76
2024/02/01 12:04:45;;;;;;;83.03;45.60;;;307.20;1510.40;;;;;;4841320;29;20469;-75
2024/02/01 12:07:14;;;;;;;81.05;49.72;;;307.60;1510.40;;;;;;4841369;29;20026;-86
2024/02/01 12:09:41;;;;;;;48.42;34.13;;;307.70;1510.40;;;;;;4840786;29;20033;-76
2024/02/01 12:12:08;;;;;;;74.65;41.33;;;307.50;1484.80;;;;;;4835768;29;20465;-74
2024/02/01 12:14:38;;;;;;;52.55;35.10;;;307.40;1459.20;;;;;;4834187;29;20076;-84
2024/02/01 12:17:05;;;;;;;63.20;44.65;;;307.30;1484.80;;;;;;4826477;29;20399;-75
2024/02/01 12:19:39;;;;;;;47.25;34.30;;;307.40;1484.80;;;;;;4831665;29;20037;-76
2024/02/01 12:22:08;;;;;;;65.93;38.40;;;307.20;1484.80;;;;;;4832676;29;20394;-75
2024/02/01 12:24:38;;;;;;;48.92;35.10;;;307.20;1510.40;;;;;;4832536;29;20112;-78
2024/02/01 12:27:08;;;;;;;82.20;51.47;;;307.30;1510.40;;;;;;4834837;29;20030;-84
2024/02/01 12:29:35;;;;;;;55.97;37.60;;;307.60;1484.80;;;;;;4833203;29;20033;-76
2024/02/01 12:32:01;;;;;;;87.50;51.95;;;307.50;1484.80;;;;;;4830756;29;20038;-78
2024/02/01 12:34:27;;;;;;;63.72;40.83;;;307.50;1510.40;;;;;;4838274;29;20278;-75
2024/02/01 12:36:53;;;;;;;51.30;34.53;;;307.50;1510.40;;;;;;4832044;29;20033;-75
2024/02/01 12:39:21;;;;;;;155.82;88.47;;;307.50;1510.40;;;;;;4830810;29;20453;-74
2024/02/01 12:41:47;;;;;;;54.72;28.98;;;307.30;1510.40;;;;;;4825204;29;20042;-73
2024/02/01 12:44:13;;;;;;;53.58;32.15;;;307.30;1510.40;;;;;;4834329;29;20042;-73
2024/02/01 12:46:43;;;;;;;47.45;33.92;;;307.40;1536.00;;;;;;4833943;29;20083;-74
2024/02/01 12:49:18;;;;;;;40.42;26.83;;;307.40;1536.00;;;;;;4832989;29;20022;-76
2024/02/01 12:51:47;;;;;;;83.53;48.95;;;307.30;1510.40;;;;;;4836862;29;20028;-72
2024/02/01 12:54:15;;;;;;;60.35;40.20;;;307.40;1536.00;;;;;;4831986;29;20561;-74